createdAt,value
2022-10-10T00:00:41.840Z,23.98
2022-10-10T00:06:05.731Z,23.88
2022-10-10T00:11:11.354Z,19.13
2022-10-10T00:16:16.044Z,16.63
2022-10-10T00:21:19.994Z,17.60
2022-10-10T00:26:25.109Z,17.63
2022-10-10T00:31:29.027Z,15.07
2022-10-10T00:36:32.914Z,15.18
2022-10-10T00:41:38.105Z,14.63
2022-10-10T00:46:42.508Z,12.43
2022-10-10T00:51:48.441Z,12.82
2022-10-10T00:56:56.754Z,13.50
2022-10-10T01:02:04.007Z,12.93
2022-10-10T01:07:11.626Z,11.52
2022-10-10T01:12:23.125Z,11.55
2022-10-10T01:17:34.034Z,12.23
2022-10-10T01:22:46.512Z,11.63
2022-10-10T01:27:55.148Z,10.75
2022-10-10T01:33:08.080Z,11.70
2022-10-10T01:38:21.238Z,11.05
2022-10-10T01:43:26.729Z,10.73
2022-10-10T01:48:33.638Z,10.85
2022-10-10T01:53:47.622Z,10.32
2022-10-10T01:59:12.381Z,10.88
2022-10-10T02:04:24.731Z,9.82
2022-10-10T02:09:35.421Z,10.60
2022-10-10T02:14:42.467Z,10.32
2022-10-10T02:19:51.948Z,10.80
2022-10-10T02:24:57.576Z,11.15
2022-10-10T02:30:03.696Z,10.38
2022-10-10T02:35:14.106Z,11.70
2022-10-10T02:40:22.923Z,11.00
2022-10-10T02:45:28.957Z,11.48
2022-10-10T02:50:35.578Z,10.32
2022-10-10T02:55:39.452Z,10.20
2022-10-10T03:00:43.313Z,10.18
2022-10-10T03:05:48.600Z,18.25
2022-10-10T03:10:57.321Z,10.57
2022-10-10T03:16:02.395Z,10.40
2022-10-10T03:21:07.686Z,10.00
2022-10-10T03:26:11.535Z,10.88
2022-10-10T03:31:16.055Z,10.32
2022-10-10T03:36:22.319Z,10.57
2022-10-10T03:41:26.226Z,9.48
2022-10-10T03:46:30.312Z,11.57
2022-10-10T03:51:35.541Z,13.55
2022-10-10T03:56:39.418Z,16.10
2022-10-10T04:01:43.424Z,17.35
2022-10-10T04:06:48.624Z,17.38
2022-10-10T04:11:52.348Z,15.77
2022-10-10T04:16:59.710Z,16.27
2022-10-10T04:22:11.081Z,18.20
2022-10-10T04:27:15.559Z,17.08
2022-10-10T04:32:19.485Z,16.15
2022-10-10T04:37:25.177Z,16.90
2022-10-10T04:42:29.218Z,15.25
2022-10-10T04:47:33.104Z,16.77
2022-10-10T04:52:38.837Z,16.90
2022-10-10T04:57:42.879Z,14.80
2022-10-10T05:02:46.848Z,16.23
2022-10-10T05:07:55.541Z,16.85
2022-10-10T05:12:59.744Z,14.90
2022-10-10T05:18:04.210Z,14.35
2022-10-10T05:23:09.508Z,15.00
2022-10-10T05:28:13.429Z,14.25
2022-10-10T05:33:17.401Z,13.75
2022-10-10T05:38:23.553Z,13.93
2022-10-10T05:43:27.977Z,13.43
2022-10-10T05:48:32.284Z,14.07
2022-10-10T05:53:37.578Z,14.13
2022-10-10T05:58:41.541Z,13.35
2022-10-10T06:03:45.736Z,12.40
2022-10-10T06:08:51.269Z,11.88
2022-10-10T06:13:55.317Z,11.45
2022-10-10T06:18:59.600Z,11.82
2022-10-10T06:24:05.147Z,11.82
2022-10-10T06:34:13.095Z,11.48
2022-10-10T06:39:18.747Z,10.57
2022-10-10T06:49:26.806Z,10.80
2022-10-10T06:54:32.428Z,13.25
2022-10-10T06:59:37.645Z,11.70
2022-10-10T07:04:41.808Z,10.68
2022-10-10T07:09:47.841Z,10.25
2022-10-10T07:19:56.267Z,9.13
2022-10-10T07:25:01.809Z,10.27
2022-10-10T07:30:06.646Z,10.23
2022-10-10T07:35:11.323Z,10.50
2022-10-10T07:40:16.633Z,7.82
2022-10-10T07:45:20.716Z,33.42
2022-10-10T07:50:26.131Z,8.40
2022-10-10T07:55:31.906Z,6.32
2022-10-10T08:00:36.751Z,5.43
2022-10-10T08:05:48.149Z,4.88
2022-10-10T08:10:54.499Z,4.20
2022-10-10T08:15:58.632Z,4.22
2022-10-10T08:21:05.251Z,4.07
2022-10-10T08:26:13.244Z,3.28
2022-10-10T08:31:19.225Z,4.88
2022-10-10T08:36:25.006Z,4.13
2022-10-10T08:46:42.364Z,2.95
2022-10-10T08:51:56.950Z,3.03
2022-10-10T08:57:07.125Z,2.60
2022-10-10T09:02:53.091Z,3.38
2022-10-10T09:08:27.001Z,3.00
2022-10-10T09:13:38.593Z,2.55
2022-10-10T09:19:00.739Z,2.65
2022-10-10T09:24:13.291Z,2.25
2022-10-10T09:29:27.636Z,2.25
2022-10-10T09:34:36.610Z,2.60
2022-10-10T09:39:56.889Z,2.45
2022-10-10T09:45:21.982Z,2.65
2022-10-10T09:50:31.333Z,1.95
2022-10-10T09:55:39.762Z,2.53
2022-10-10T10:00:45.078Z,2.15
2022-10-10T10:05:57.614Z,2.78
2022-10-10T10:11:03.378Z,2.50
2022-10-10T10:16:12.545Z,2.58
2022-10-10T10:21:23.605Z,2.72
2022-10-10T10:26:32.132Z,2.20
2022-10-10T10:31:54.327Z,2.40
2022-10-10T10:37:14.564Z,2.25
2022-10-10T10:42:34.186Z,2.53
2022-10-10T10:47:50.559Z,2.45
2022-10-10T10:53:01.486Z,2.70
2022-10-10T11:05:18.612Z,2.97
2022-10-10T11:09:50.374Z,2.67
2022-10-10T11:15:02.739Z,2.80
2022-10-10T11:20:21.412Z,2.88
2022-10-10T11:25:29.619Z,2.53
2022-10-10T11:30:37.853Z,3.17
2022-10-10T11:35:47.891Z,2.63
2022-10-10T11:40:57.896Z,3.97
2022-10-10T11:46:09.936Z,2.70
2022-10-10T11:51:25.988Z,2.85
2022-10-10T11:56:34.531Z,2.70
2022-10-10T12:01:40.124Z,2.80
2022-10-10T12:06:49.735Z,2.75
2022-10-10T12:11:57.950Z,2.60
2022-10-10T12:17:02.325Z,2.75
2022-10-10T12:22:12.603Z,2.60
2022-10-10T12:27:30.626Z,2.60
2022-10-10T12:32:43.098Z,3.75
2022-10-10T12:38:16.873Z,2.28
2022-10-10T12:43:26.681Z,2.67
2022-10-10T12:48:30.609Z,2.35
2022-10-10T12:53:36.143Z,2.95
2022-10-10T13:03:47.585Z,2.38
2022-10-10T13:08:55.371Z,2.78
2022-10-10T13:13:59.182Z,3.42
2022-10-10T13:19:03.053Z,3.25
2022-10-10T13:24:09.095Z,2.90
2022-10-10T13:29:22.491Z,3.00
2022-10-10T13:34:31.181Z,3.03
2022-10-10T13:39:39.821Z,3.00
2022-10-10T13:44:51.630Z,4.65
2022-10-10T13:49:56.790Z,4.90
2022-10-10T13:55:24.073Z,3.00
2022-10-10T14:00:32.781Z,3.00
2022-10-10T14:05:37.449Z,4.75
2022-10-10T14:10:42.967Z,5.35
2022-10-10T14:15:48.380Z,4.40
2022-10-10T14:20:55.571Z,3.47
2022-10-10T14:26:01.085Z,3.47
2022-10-10T14:36:11.628Z,3.72
2022-10-10T14:41:17.022Z,3.58
2022-10-10T14:46:21.246Z,4.10
2022-10-10T14:51:34.844Z,3.10
2022-10-10T14:57:09.414Z,3.88
2022-10-10T15:02:06.779Z,3.97
2022-10-10T15:07:14.222Z,4.00
2022-10-10T15:12:20.336Z,4.03
2022-10-10T15:17:25.671Z,4.55
2022-10-10T15:22:30.293Z,4.85
2022-10-10T15:27:35.879Z,5.03
2022-10-10T15:32:41.115Z,6.82
2022-10-10T15:37:45.943Z,5.70
2022-10-10T15:42:52.571Z,7.40
2022-10-10T15:47:56.551Z,6.05
2022-10-10T15:53:00.567Z,7.90
2022-10-10T15:58:05.890Z,7.45
2022-10-10T16:03:12.464Z,6.13
2022-10-10T16:08:16.465Z,8.88
2022-10-10T16:13:21.736Z,8.82
2022-10-10T16:18:25.539Z,8.45
2022-10-10T16:23:29.977Z,7.20
2022-10-10T16:28:36.090Z,8.00
2022-10-10T16:33:41.824Z,7.93
2022-10-10T16:38:45.720Z,8.73
2022-10-10T16:43:50.686Z,7.45
2022-10-10T16:49:11.239Z,8.30
2022-10-10T16:54:15.198Z,8.02
2022-10-10T16:59:20.741Z,8.15
2022-10-10T17:04:24.852Z,7.32
2022-10-10T17:09:29.899Z,8.05
2022-10-10T17:14:37.055Z,7.05
2022-10-10T17:24:45.130Z,6.53
2022-10-10T17:29:53.316Z,5.95
2022-10-10T17:34:58.406Z,6.55
2022-10-10T17:40:02.362Z,6.77
2022-10-10T17:45:08.886Z,6.90
2022-10-10T17:50:13.419Z,6.72
2022-10-10T17:55:17.478Z,6.88
2022-10-10T18:00:22.939Z,6.50
2022-10-10T18:05:29.056Z,7.47
2022-10-10T18:10:33.610Z,7.85
2022-10-10T18:15:40.196Z,7.18
2022-10-10T18:20:44.978Z,7.50
2022-10-10T18:25:49.068Z,7.20
2022-10-10T18:30:54.887Z,6.95
2022-10-10T18:41:06.740Z,6.10
2022-10-10T18:46:13.771Z,6.15
2022-10-10T18:51:22.344Z,6.82
2022-10-10T18:56:26.382Z,7.90
2022-10-10T19:01:36.364Z,12.68
2022-10-10T19:06:41.821Z,7.22
2022-10-10T19:11:48.861Z,7.33
2022-10-10T19:16:54.006Z,8.43
2022-10-10T19:21:57.916Z,7.97
2022-10-10T19:27:01.681Z,9.45
2022-10-10T19:32:07.288Z,10.00
2022-10-10T19:37:11.531Z,8.68
2022-10-10T19:42:15.395Z,9.10
2022-10-10T19:47:20.628Z,8.88
2022-10-10T19:52:24.371Z,9.77
2022-10-10T19:57:28.184Z,9.77
2022-10-10T20:02:33.597Z,8.35
2022-10-10T20:07:37.512Z,8.80
2022-10-10T20:12:41.251Z,8.55
2022-10-10T20:17:46.455Z,8.52
2022-10-10T20:22:51.368Z,8.70
2022-10-10T20:27:55.239Z,8.70
2022-10-10T20:33:00.897Z,7.32
2022-10-10T20:38:05.898Z,7.30
2022-10-10T20:43:12.178Z,8.05
2022-10-10T20:48:17.354Z,7.65
2022-10-10T20:53:21.345Z,8.15
2022-10-10T20:58:25.125Z,8.25
2022-10-10T21:03:31.498Z,7.90
2022-10-10T21:08:35.696Z,7.78
2022-10-10T21:13:41.917Z,7.72
2022-10-10T21:18:56.918Z,7.15
2022-10-10T21:29:06.440Z,6.80
2022-10-10T21:34:16.957Z,6.50
2022-10-10T21:39:21.136Z,7.20
2022-10-10T21:44:24.967Z,8.15
2022-10-10T21:49:30.220Z,7.68
2022-10-10T21:54:34.199Z,7.95
2022-10-10T21:59:38.413Z,8.13
2022-10-10T22:04:43.739Z,9.73
2022-10-10T22:09:47.752Z,7.30
2022-10-10T22:14:51.754Z,8.48
2022-10-10T22:19:56.979Z,6.72
2022-10-10T22:25:04.762Z,7.15
2022-10-10T22:30:11.849Z,8.82
2022-10-10T22:35:17.369Z,9.18
2022-10-10T22:40:23.252Z,11.20
2022-10-10T22:45:27.193Z,10.05
2022-10-10T22:50:32.474Z,10.15
2022-10-10T22:55:36.457Z,11.23
2022-10-10T23:00:41.824Z,10.35
2022-10-10T23:05:47.704Z,11.02
2022-10-10T23:10:51.587Z,12.40
2022-10-10T23:15:55.708Z,12.90
2022-10-10T23:21:01.124Z,12.55
2022-10-10T23:26:07.235Z,10.63
2022-10-10T23:31:14.968Z,9.10
2022-10-10T23:36:20.722Z,10.10
2022-10-10T23:41:25.190Z,10.23
2022-10-10T23:46:29.300Z,9.82
2022-10-10T23:51:34.555Z,8.68
2022-10-10T23:56:38.331Z,9.75
